sensor_id;sensor_type;location;lat;lon;timestamp;P1;durP1;ratioP1;P2;durP2;ratioP2
72156;SDS011;60035;52.122;5.406;2023-03-21T00:04:14;19.70;;;9.25;;
72156;SDS011;60035;52.122;5.406;2023-03-21T00:06:41;19.90;;;9.60;;
72156;SDS011;60035;52.122;5.406;2023-03-21T00:09:08;21.52;;;9.70;;
72156;SDS011;60035;52.122;5.406;2023-03-21T00:11:35;20.40;;;9.77;;
72156;SDS011;60035;52.122;5.406;2023-03-21T00:14:01;19.33;;;9.07;;
72156;SDS011;60035;52.122;5.406;2023-03-21T00:16:28;19.50;;;8.90;;
72156;SDS011;60035;52.122;5.406;2023-03-21T00:19:01;21.73;;;9.55;;
72156;SDS011;60035;52.122;5.406;2023-03-21T00:21:31;18.33;;;8.65;;
72156;SDS011;60035;52.122;5.406;2023-03-21T00:24:19;18.98;;;8.57;;
72156;SDS011;60035;52.122;5.406;2023-03-21T00:26:48;19.67;;;9.68;;
72156;SDS011;60035;52.122;5.406;2023-03-21T00:29:15;20.27;;;9.93;;
72156;SDS011;60035;52.122;5.406;2023-03-21T00:31:42;19.60;;;9.07;;
72156;SDS011;60035;52.122;5.406;2023-03-21T00:34:09;21.02;;;9.52;;
72156;SDS011;60035;52.122;5.406;2023-03-21T00:36:41;17.83;;;9.07;;
72156;SDS011;60035;52.122;5.406;2023-03-21T00:39:08;21.50;;;9.88;;
72156;SDS011;60035;52.122;5.406;2023-03-21T00:41:34;19.90;;;8.95;;
72156;SDS011;60035;52.122;5.406;2023-03-21T00:44:08;18.08;;;7.82;;
72156;SDS011;60035;52.122;5.406;2023-03-21T00:46:38;18.73;;;8.57;;
72156;SDS011;60035;52.122;5.406;2023-03-21T00:49:19;15.25;;;7.25;;
72156;SDS011;60035;52.122;5.406;2023-03-21T00:51:46;17.67;;;7.55;;
72156;SDS011;60035;52.122;5.406;2023-03-21T00:54:16;20.17;;;8.15;;
72156;SDS011;60035;52.122;5.406;2023-03-21T00:56:43;16.73;;;7.80;;
72156;SDS011;60035;52.122;5.406;2023-03-21T00:59:10;18.13;;;8.02;;
72156;SDS011;60035;52.122;5.406;2023-03-21T01:01:36;17.55;;;8.35;;
72156;SDS011;60035;52.122;5.406;2023-03-21T01:04:03;16.50;;;8.05;;
72156;SDS011;60035;52.122;5.406;2023-03-21T01:06:35;18.58;;;8.88;;
72156;SDS011;60035;52.122;5.406;2023-03-21T01:09:27;18.88;;;8.70;;
72156;SDS011;60035;52.122;5.406;2023-03-21T01:11:52;20.95;;;9.77;;
72156;SDS011;60035;52.122;5.406;2023-03-21T01:14:20;19.30;;;9.13;;
72156;SDS011;60035;52.122;5.406;2023-03-21T01:16:52;21.20;;;10.38;;
72156;SDS011;60035;52.122;5.406;2023-03-21T01:19:20;25.50;;;11.13;;
72156;SDS011;60035;52.122;5.406;2023-03-21T01:22:06;26.00;;;11.30;;
72156;SDS011;60035;52.122;5.406;2023-03-21T01:24:33;28.25;;;11.40;;
72156;SDS011;60035;52.122;5.406;2023-03-21T01:27:08;23.83;;;10.70;;
72156;SDS011;60035;52.122;5.406;2023-03-21T01:29:35;21.52;;;9.98;;
72156;SDS011;60035;52.122;5.406;2023-03-21T01:32:01;22.83;;;11.40;;
72156;SDS011;60035;52.122;5.406;2023-03-21T01:34:28;26.33;;;11.35;;
72156;SDS011;60035;52.122;5.406;2023-03-21T01:36:55;24.35;;;10.93;;
72156;SDS011;60035;52.122;5.406;2023-03-21T01:39:21;24.50;;;10.48;;
72156;SDS011;60035;52.122;5.406;2023-03-21T01:41:48;26.50;;;11.27;;
72156;SDS011;60035;52.122;5.406;2023-03-21T01:44:17;26.48;;;12.00;;
72156;SDS011;60035;52.122;5.406;2023-03-21T01:46:48;27.10;;;11.88;;
72156;SDS011;60035;52.122;5.406;2023-03-21T01:49:34;29.67;;;12.32;;
72156;SDS011;60035;52.122;5.406;2023-03-21T01:52:06;28.85;;;13.13;;
72156;SDS011;60035;52.122;5.406;2023-03-21T01:54:49;26.60;;;11.35;;
72156;SDS011;60035;52.122;5.406;2023-03-21T02:00:14;30.60;;;13.10;;
72156;SDS011;60035;52.122;5.406;2023-03-21T02:02:42;28.25;;;12.63;;
72156;SDS011;60035;52.122;5.406;2023-03-21T02:05:18;30.65;;;12.98;;
72156;SDS011;60035;52.122;5.406;2023-03-21T02:07:49;29.80;;;12.90;;
72156;SDS011;60035;52.122;5.406;2023-03-21T02:10:18;32.45;;;14.18;;
72156;SDS011;60035;52.122;5.406;2023-03-21T02:12:45;27.20;;;13.52;;
72156;SDS011;60035;52.122;5.406;2023-03-21T02:15:11;29.00;;;12.98;;
72156;SDS011;60035;52.122;5.406;2023-03-21T02:17:44;31.20;;;13.32;;
72156;SDS011;60035;52.122;5.406;2023-03-21T02:28:39;28.27;;;12.82;;
72156;SDS011;60035;52.122;5.406;2023-03-21T02:45:32;30.90;;;13.88;;
72156;SDS011;60035;52.122;5.406;2023-03-21T02:48:06;33.15;;;14.13;;
72156;SDS011;60035;52.122;5.406;2023-03-21T02:50:54;29.55;;;12.80;;
72156;SDS011;60035;52.122;5.406;2023-03-21T02:53:24;30.58;;;13.93;;
72156;SDS011;60035;52.122;5.406;2023-03-21T02:55:56;30.90;;;13.93;;
72156;SDS011;60035;52.122;5.406;2023-03-21T02:58:25;31.05;;;13.18;;
72156;SDS011;60035;52.122;5.406;2023-03-21T03:00:55;28.65;;;12.55;;
72156;SDS011;60035;52.122;5.406;2023-03-21T03:03:22;29.08;;;12.95;;
72156;SDS011;60035;52.122;5.406;2023-03-21T03:05:59;34.97;;;13.70;;
72156;SDS011;60035;52.122;5.406;2023-03-21T03:08:41;31.55;;;13.13;;
72156;SDS011;60035;52.122;5.406;2023-03-21T03:11:25;31.15;;;12.32;;
72156;SDS011;60035;52.122;5.406;2023-03-21T03:14:02;30.42;;;12.15;;
72156;SDS011;60035;52.122;5.406;2023-03-21T03:22:51;25.50;;;10.63;;
72156;SDS011;60035;52.122;5.406;2023-03-21T03:25:20;30.50;;;12.40;;
72156;SDS011;60035;52.122;5.406;2023-03-21T03:28:09;28.60;;;12.27;;
72156;SDS011;60035;52.122;5.406;2023-03-21T03:30:38;33.00;;;11.57;;
72156;SDS011;60035;52.122;5.406;2023-03-21T03:33:16;24.83;;;10.43;;
72156;SDS011;60035;52.122;5.406;2023-03-21T03:35:48;28.73;;;11.70;;
72156;SDS011;60035;52.122;5.406;2023-03-21T03:38:31;30.38;;;13.27;;
72156;SDS011;60035;52.122;5.406;2023-03-21T03:41:01;28.48;;;11.95;;
72156;SDS011;60035;52.122;5.406;2023-03-21T03:43:39;31.00;;;11.38;;
72156;SDS011;60035;52.122;5.406;2023-03-21T03:46:14;31.67;;;13.10;;
72156;SDS011;60035;52.122;5.406;2023-03-21T03:48:58;29.73;;;12.70;;
72156;SDS011;60035;52.122;5.406;2023-03-21T03:51:35;29.52;;;12.20;;
72156;SDS011;60035;52.122;5.406;2023-03-21T03:54:13;28.42;;;12.15;;
72156;SDS011;60035;52.122;5.406;2023-03-21T03:56:44;26.98;;;11.88;;
72156;SDS011;60035;52.122;5.406;2023-03-21T03:59:11;26.83;;;11.77;;
72156;SDS011;60035;52.122;5.406;2023-03-21T04:01:44;26.08;;;11.55;;
72156;SDS011;60035;52.122;5.406;2023-03-21T04:04:11;27.65;;;11.60;;
72156;SDS011;60035;52.122;5.406;2023-03-21T04:06:39;31.25;;;13.02;;
72156;SDS011;60035;52.122;5.406;2023-03-21T04:09:06;28.30;;;12.77;;
72156;SDS011;60035;52.122;5.406;2023-03-21T04:11:45;28.48;;;12.10;;
72156;SDS011;60035;52.122;5.406;2023-03-21T04:14:12;27.42;;;11.50;;
72156;SDS011;60035;52.122;5.406;2023-03-21T04:16:39;31.50;;;14.15;;
72156;SDS011;60035;52.122;5.406;2023-03-21T04:19:05;28.48;;;12.90;;
72156;SDS011;60035;52.122;5.406;2023-03-21T04:21:32;28.23;;;12.25;;
72156;SDS011;60035;52.122;5.406;2023-03-21T04:23:59;28.75;;;12.98;;
72156;SDS011;60035;52.122;5.406;2023-03-21T04:26:25;30.23;;;12.80;;
72156;SDS011;60035;52.122;5.406;2023-03-21T04:28:58;29.25;;;13.38;;
72156;SDS011;60035;52.122;5.406;2023-03-21T04:31:26;33.10;;;13.57;;
72156;SDS011;60035;52.122;5.406;2023-03-21T04:33:53;29.02;;;13.27;;
72156;SDS011;60035;52.122;5.406;2023-03-21T04:36:21;33.25;;;14.05;;
72156;SDS011;60035;52.122;5.406;2023-03-21T04:38:51;36.67;;;13.20;;
72156;SDS011;60035;52.122;5.406;2023-03-21T04:41:18;30.63;;;13.65;;
72156;SDS011;60035;52.122;5.406;2023-03-21T04:43:45;33.83;;;14.00;;
72156;SDS011;60035;52.122;5.406;2023-03-21T04:46:12;32.33;;;13.40;;
72156;SDS011;60035;52.122;5.406;2023-03-21T04:48:39;30.08;;;13.00;;
72156;SDS011;60035;52.122;5.406;2023-03-21T04:51:05;35.90;;;14.13;;
72156;SDS011;60035;52.122;5.406;2023-03-21T04:53:32;31.33;;;12.80;;
72156;SDS011;60035;52.122;5.406;2023-03-21T04:55:59;31.35;;;13.50;;
72156;SDS011;60035;52.122;5.406;2023-03-21T04:58:25;35.10;;;13.60;;
72156;SDS011;60035;52.122;5.406;2023-03-21T05:00:52;30.20;;;13.02;;
72156;SDS011;60035;52.122;5.406;2023-03-21T05:03:19;33.00;;;13.27;;
72156;SDS011;60035;52.122;5.406;2023-03-21T05:05:47;32.03;;;12.68;;
72156;SDS011;60035;52.122;5.406;2023-03-21T05:08:14;30.00;;;13.48;;
72156;SDS011;60035;52.122;5.406;2023-03-21T05:10:41;32.72;;;12.80;;
72156;SDS011;60035;52.122;5.406;2023-03-21T05:13:08;27.60;;;11.80;;
72156;SDS011;60035;52.122;5.406;2023-03-21T05:15:35;30.38;;;12.25;;
72156;SDS011;60035;52.122;5.406;2023-03-21T05:18:02;29.35;;;10.98;;
72156;SDS011;60035;52.122;5.406;2023-03-21T05:20:37;24.35;;;11.07;;
72156;SDS011;60035;52.122;5.406;2023-03-21T05:23:11;27.55;;;10.75;;
72156;SDS011;60035;52.122;5.406;2023-03-21T05:25:38;28.98;;;10.52;;
72156;SDS011;60035;52.122;5.406;2023-03-21T05:28:06;30.50;;;10.43;;
72156;SDS011;60035;52.122;5.406;2023-03-21T05:30:33;28.33;;;10.45;;
72156;SDS011;60035;52.122;5.406;2023-03-21T05:32:59;28.10;;;9.75;;
72156;SDS011;60035;52.122;5.406;2023-03-21T05:35:26;22.88;;;9.73;;
72156;SDS011;60035;52.122;5.406;2023-03-21T05:37:53;27.50;;;10.30;;
72156;SDS011;60035;52.122;5.406;2023-03-21T05:40:20;28.60;;;9.82;;
72156;SDS011;60035;52.122;5.406;2023-03-21T05:42:46;27.63;;;9.77;;
72156;SDS011;60035;52.122;5.406;2023-03-21T05:45:14;25.25;;;9.70;;
72156;SDS011;60035;52.122;5.406;2023-03-21T05:47:41;20.83;;;9.15;;
72156;SDS011;60035;52.122;5.406;2023-03-21T05:50:08;23.98;;;9.48;;
72156;SDS011;60035;52.122;5.406;2023-03-21T05:52:36;23.77;;;9.15;;
72156;SDS011;60035;52.122;5.406;2023-03-21T05:55:06;23.08;;;9.48;;
72156;SDS011;60035;52.122;5.406;2023-03-21T05:57:33;19.77;;;9.18;;
72156;SDS011;60035;52.122;5.406;2023-03-21T06:00:04;24.67;;;8.50;;
72156;SDS011;60035;52.122;5.406;2023-03-21T06:02:32;21.27;;;9.25;;
72156;SDS011;60035;52.122;5.406;2023-03-21T06:04:59;21.63;;;8.13;;
72156;SDS011;60035;52.122;5.406;2023-03-21T06:07:25;22.25;;;7.85;;
72156;SDS011;60035;52.122;5.406;2023-03-21T06:09:52;18.67;;;8.68;;
72156;SDS011;60035;52.122;5.406;2023-03-21T06:12:18;21.27;;;8.88;;
72156;SDS011;60035;52.122;5.406;2023-03-21T06:14:45;24.60;;;9.15;;
72156;SDS011;60035;52.122;5.406;2023-03-21T06:17:12;24.55;;;8.45;;
72156;SDS011;60035;52.122;5.406;2023-03-21T06:19:38;18.52;;;8.15;;
72156;SDS011;60035;52.122;5.406;2023-03-21T06:22:05;24.02;;;9.05;;
72156;SDS011;60035;52.122;5.406;2023-03-21T06:24:32;22.73;;;9.35;;
72156;SDS011;60035;52.122;5.406;2023-03-21T06:26:58;24.73;;;8.60;;
72156;SDS011;60035;52.122;5.406;2023-03-21T06:29:27;25.17;;;8.77;;
72156;SDS011;60035;52.122;5.406;2023-03-21T06:31:54;25.55;;;8.75;;
72156;SDS011;60035;52.122;5.406;2023-03-21T06:34:21;23.48;;;8.40;;
72156;SDS011;60035;52.122;5.406;2023-03-21T06:36:47;19.65;;;8.35;;
72156;SDS011;60035;52.122;5.406;2023-03-21T06:39:14;20.98;;;8.68;;
72156;SDS011;60035;52.122;5.406;2023-03-21T06:41:41;21.67;;;7.78;;
72156;SDS011;60035;52.122;5.406;2023-03-21T06:44:07;25.48;;;8.50;;
72156;SDS011;60035;52.122;5.406;2023-03-21T06:46:34;20.92;;;8.23;;
72156;SDS011;60035;52.122;5.406;2023-03-21T06:49:00;21.42;;;8.77;;
72156;SDS011;60035;52.122;5.406;2023-03-21T06:51:27;22.02;;;8.38;;
72156;SDS011;60035;52.122;5.406;2023-03-21T06:53:53;22.70;;;8.15;;
72156;SDS011;60035;52.122;5.406;2023-03-21T06:56:20;23.42;;;8.45;;
72156;SDS011;60035;52.122;5.406;2023-03-21T06:58:46;21.10;;;8.13;;
72156;SDS011;60035;52.122;5.406;2023-03-21T07:01:13;21.98;;;8.52;;
72156;SDS011;60035;52.122;5.406;2023-03-21T07:03:40;24.27;;;8.82;;
72156;SDS011;60035;52.122;5.406;2023-03-21T07:06:08;21.02;;;7.75;;
72156;SDS011;60035;52.122;5.406;2023-03-21T07:08:39;19.88;;;7.70;;
72156;SDS011;60035;52.122;5.406;2023-03-21T07:11:06;22.25;;;8.18;;
72156;SDS011;60035;52.122;5.406;2023-03-21T07:13:34;19.23;;;7.63;;
72156;SDS011;60035;52.122;5.406;2023-03-21T07:16:01;21.52;;;7.45;;
72156;SDS011;60035;52.122;5.406;2023-03-21T07:18:31;17.98;;;7.10;;
72156;SDS011;60035;52.122;5.406;2023-03-21T07:20:57;24.67;;;8.30;;
72156;SDS011;60035;52.122;5.406;2023-03-21T07:23:24;18.60;;;7.28;;
72156;SDS011;60035;52.122;5.406;2023-03-21T07:25:52;16.70;;;7.05;;
72156;SDS011;60035;52.122;5.406;2023-03-21T07:28:19;21.95;;;6.55;;
72156;SDS011;60035;52.122;5.406;2023-03-21T07:30:50;18.08;;;7.28;;
72156;SDS011;60035;52.122;5.406;2023-03-21T07:33:22;21.55;;;7.53;;
72156;SDS011;60035;52.122;5.406;2023-03-21T07:35:49;17.05;;;6.72;;
72156;SDS011;60035;52.122;5.406;2023-03-21T07:38:17;22.20;;;7.85;;
72156;SDS011;60035;52.122;5.406;2023-03-21T07:40:45;19.25;;;6.72;;
72156;SDS011;60035;52.122;5.406;2023-03-21T07:43:13;16.92;;;7.05;;
72156;SDS011;60035;52.122;5.406;2023-03-21T07:45:41;17.35;;;6.47;;
72156;SDS011;60035;52.122;5.406;2023-03-21T07:48:08;16.65;;;6.47;;
72156;SDS011;60035;52.122;5.406;2023-03-21T07:50:35;19.85;;;7.30;;
72156;SDS011;60035;52.122;5.406;2023-03-21T07:53:02;15.85;;;6.93;;
72156;SDS011;60035;52.122;5.406;2023-03-21T07:55:28;21.85;;;7.30;;
72156;SDS011;60035;52.122;5.406;2023-03-21T07:57:55;17.63;;;5.97;;
72156;SDS011;60035;52.122;5.406;2023-03-21T08:00:22;23.08;;;7.55;;
72156;SDS011;60035;52.122;5.406;2023-03-21T08:02:52;20.23;;;7.35;;
72156;SDS011;60035;52.122;5.406;2023-03-21T08:05:25;19.02;;;6.80;;
72156;SDS011;60035;52.122;5.406;2023-03-21T08:07:53;17.40;;;6.55;;
72156;SDS011;60035;52.122;5.406;2023-03-21T08:10:20;19.25;;;6.90;;
72156;SDS011;60035;52.122;5.406;2023-03-21T08:12:47;19.63;;;7.53;;
72156;SDS011;60035;52.122;5.406;2023-03-21T08:15:14;15.27;;;6.30;;
72156;SDS011;60035;52.122;5.406;2023-03-21T08:17:41;16.27;;;6.75;;
72156;SDS011;60035;52.122;5.406;2023-03-21T08:20:11;17.17;;;6.40;;
72156;SDS011;60035;52.122;5.406;2023-03-21T08:25:09;15.95;;;6.63;;
72156;SDS011;60035;52.122;5.406;2023-03-21T08:27:39;17.50;;;6.57;;
72156;SDS011;60035;52.122;5.406;2023-03-21T08:30:07;16.55;;;6.75;;
72156;SDS011;60035;52.122;5.406;2023-03-21T08:32:35;16.23;;;6.10;;
72156;SDS011;60035;52.122;5.406;2023-03-21T08:35:05;17.90;;;6.57;;
72156;SDS011;60035;52.122;5.406;2023-03-21T08:37:36;17.60;;;7.15;;
72156;SDS011;60035;52.122;5.406;2023-03-21T08:40:08;22.80;;;7.18;;
72156;SDS011;60035;52.122;5.406;2023-03-21T08:42:41;16.48;;;5.80;;
72156;SDS011;60035;52.122;5.406;2023-03-21T08:47:36;15.25;;;5.65;;
72156;SDS011;60035;52.122;5.406;2023-03-21T08:50:04;18.52;;;6.18;;
72156;SDS011;60035;52.122;5.406;2023-03-21T08:52:32;15.23;;;5.95;;
72156;SDS011;60035;52.122;5.406;2023-03-21T08:54:59;17.73;;;6.07;;
72156;SDS011;60035;52.122;5.406;2023-03-21T08:57:27;16.50;;;5.53;;
72156;SDS011;60035;52.122;5.406;2023-03-21T08:59:54;14.15;;;5.68;;
72156;SDS011;60035;52.122;5.406;2023-03-21T09:02:21;16.58;;;5.65;;
72156;SDS011;60035;52.122;5.406;2023-03-21T09:04:48;15.73;;;5.57;;
72156;SDS011;60035;52.122;5.406;2023-03-21T09:07:14;19.42;;;6.07;;
72156;SDS011;60035;52.122;5.406;2023-03-21T09:09:52;13.38;;;5.57;;
72156;SDS011;60035;52.122;5.406;2023-03-21T09:14:59;13.30;;;5.53;;
72156;SDS011;60035;52.122;5.406;2023-03-21T09:17:28;17.42;;;5.00;;
72156;SDS011;60035;52.122;5.406;2023-03-21T09:19:54;14.98;;;5.30;;
72156;SDS011;60035;52.122;5.406;2023-03-21T09:22:22;13.50;;;5.20;;
72156;SDS011;60035;52.122;5.406;2023-03-21T09:24:49;13.93;;;5.35;;
72156;SDS011;60035;52.122;5.406;2023-03-21T09:27:15;13.77;;;5.20;;
72156;SDS011;60035;52.122;5.406;2023-03-21T09:29:43;11.98;;;4.93;;
72156;SDS011;60035;52.122;5.406;2023-03-21T09:32:10;14.13;;;4.90;;
72156;SDS011;60035;52.122;5.406;2023-03-21T09:34:38;13.93;;;4.82;;
72156;SDS011;60035;52.122;5.406;2023-03-21T09:37:07;12.23;;;4.70;;
72156;SDS011;60035;52.122;5.406;2023-03-21T09:39:41;14.25;;;4.80;;
72156;SDS011;60035;52.122;5.406;2023-03-21T09:42:20;14.38;;;5.43;;
72156;SDS011;60035;52.122;5.406;2023-03-21T09:47:45;15.85;;;5.70;;
72156;SDS011;60035;52.122;5.406;2023-03-21T09:50:27;15.70;;;6.07;;
72156;SDS011;60035;52.122;5.406;2023-03-21T09:53:24;17.95;;;6.32;;
72156;SDS011;60035;52.122;5.406;2023-03-21T09:55:52;16.35;;;5.82;;
72156;SDS011;60035;52.122;5.406;2023-03-21T09:58:33;13.52;;;4.70;;
72156;SDS011;60035;52.122;5.406;2023-03-21T10:01:08;16.55;;;6.35;;
72156;SDS011;60035;52.122;5.406;2023-03-21T10:03:53;15.35;;;6.05;;
72156;SDS011;60035;52.122;5.406;2023-03-21T10:06:21;16.60;;;5.90;;
72156;SDS011;60035;52.122;5.406;2023-03-21T10:09:07;14.73;;;5.90;;
72156;SDS011;60035;52.122;5.406;2023-03-21T10:14:11;17.13;;;6.10;;
72156;SDS011;60035;52.122;5.406;2023-03-21T10:16:40;17.50;;;6.05;;
72156;SDS011;60035;52.122;5.406;2023-03-21T10:19:10;14.48;;;5.45;;
72156;SDS011;60035;52.122;5.406;2023-03-21T10:21:39;14.48;;;5.60;;
72156;SDS011;60035;52.122;5.406;2023-03-21T10:24:30;14.32;;;5.38;;
72156;SDS011;60035;52.122;5.406;2023-03-21T10:26:59;13.77;;;5.95;;
72156;SDS011;60035;52.122;5.406;2023-03-21T10:29:29;17.95;;;6.32;;
72156;SDS011;60035;52.122;5.406;2023-03-21T10:32:08;14.45;;;5.78;;
72156;SDS011;60035;52.122;5.406;2023-03-21T10:34:40;14.25;;;5.60;;
72156;SDS011;60035;52.122;5.406;2023-03-21T10:37:09;15.30;;;5.80;;
72156;SDS011;60035;52.122;5.406;2023-03-21T10:39:42;13.00;;;5.90;;
72156;SDS011;60035;52.122;5.406;2023-03-21T10:42:17;12.63;;;5.10;;
72156;SDS011;60035;52.122;5.406;2023-03-21T10:44:51;13.80;;;5.40;;
72156;SDS011;60035;52.122;5.406;2023-03-21T10:47:20;14.77;;;5.18;;
72156;SDS011;60035;52.122;5.406;2023-03-21T10:49:51;12.85;;;5.18;;
72156;SDS011;60035;52.122;5.406;2023-03-21T10:52:36;13.20;;;5.30;;
72156;SDS011;60035;52.122;5.406;2023-03-21T10:55:11;13.90;;;5.00;;
72156;SDS011;60035;52.122;5.406;2023-03-21T10:57:41;13.05;;;5.40;;
72156;SDS011;60035;52.122;5.406;2023-03-21T11:00:09;14.68;;;5.13;;
72156;SDS011;60035;52.122;5.406;2023-03-21T11:02:49;14.40;;;5.22;;
72156;SDS011;60035;52.122;5.406;2023-03-21T11:05:21;10.60;;;4.65;;
72156;SDS011;60035;52.122;5.406;2023-03-21T11:07:58;11.52;;;4.82;;
72156;SDS011;60035;52.122;5.406;2023-03-21T11:10:49;12.02;;;4.63;;
72156;SDS011;60035;52.122;5.406;2023-03-21T11:13:26;13.52;;;4.80;;
72156;SDS011;60035;52.122;5.406;2023-03-21T11:18:44;13.75;;;4.72;;
72156;SDS011;60035;52.122;5.406;2023-03-21T11:21:15;10.50;;;4.82;;
72156;SDS011;60035;52.122;5.406;2023-03-21T11:23:44;12.88;;;4.75;;
72156;SDS011;60035;52.122;5.406;2023-03-21T11:26:20;12.27;;;4.75;;
72156;SDS011;60035;52.122;5.406;2023-03-21T11:28:52;10.05;;;4.35;;
72156;SDS011;60035;52.122;5.406;2023-03-21T11:31:20;14.85;;;4.80;;
72156;SDS011;60035;52.122;5.406;2023-03-21T11:33:54;10.68;;;4.45;;
72156;SDS011;60035;52.122;5.406;2023-03-21T11:38:52;11.15;;;4.43;;
72156;SDS011;60035;52.122;5.406;2023-03-21T11:43:57;12.93;;;4.40;;
72156;SDS011;60035;52.122;5.406;2023-03-21T11:46:29;12.23;;;4.85;;
72156;SDS011;60035;52.122;5.406;2023-03-21T11:48:57;10.95;;;4.97;;
72156;SDS011;60035;52.122;5.406;2023-03-21T11:51:43;12.52;;;4.22;;
72156;SDS011;60035;52.122;5.406;2023-03-21T12:00:24;12.25;;;4.63;;
72156;SDS011;60035;52.122;5.406;2023-03-21T12:05:38;12.10;;;5.47;;
72156;SDS011;60035;52.122;5.406;2023-03-21T12:08:35;13.25;;;4.80;;
72156;SDS011;60035;52.122;5.406;2023-03-21T12:11:16;11.70;;;4.65;;
72156;SDS011;60035;52.122;5.406;2023-03-21T12:13:57;16.00;;;5.03;;
72156;SDS011;60035;52.122;5.406;2023-03-21T12:19:18;11.60;;;4.20;;
72156;SDS011;60035;52.122;5.406;2023-03-21T12:24:58;13.23;;;5.00;;
72156;SDS011;60035;52.122;5.406;2023-03-21T12:30:12;14.75;;;5.00;;
72156;SDS011;60035;52.122;5.406;2023-03-21T12:35:58;12.35;;;4.57;;
72156;SDS011;60035;52.122;5.406;2023-03-21T12:46:49;12.45;;;5.00;;
72156;SDS011;60035;52.122;5.406;2023-03-21T12:49:25;11.25;;;5.50;;
72156;SDS011;60035;52.122;5.406;2023-03-21T12:52:05;12.40;;;5.95;;
72156;SDS011;60035;52.122;5.406;2023-03-21T12:54:38;12.70;;;5.93;;
72156;SDS011;60035;52.122;5.406;2023-03-21T12:57:16;13.70;;;6.18;;
72156;SDS011;60035;52.122;5.406;2023-03-21T12:59:48;12.48;;;5.65;;
72156;SDS011;60035;52.122;5.406;2023-03-21T13:07:57;13.93;;;6.20;;
72156;SDS011;60035;52.122;5.406;2023-03-21T13:10:27;14.32;;;6.03;;
72156;SDS011;60035;52.122;5.406;2023-03-21T13:15:48;12.00;;;5.20;;
72156;SDS011;60035;52.122;5.406;2023-03-21T13:21:20;11.95;;;6.88;;
72156;SDS011;60035;52.122;5.406;2023-03-21T13:27:01;14.73;;;6.82;;
72156;SDS011;60035;52.122;5.406;2023-03-21T13:32:08;13.27;;;6.10;;
72156;SDS011;60035;52.122;5.406;2023-03-21T13:34:41;12.77;;;6.30;;
72156;SDS011;60035;52.122;5.406;2023-03-21T13:37:12;13.57;;;6.30;;
72156;SDS011;60035;52.122;5.406;2023-03-21T13:39:46;16.13;;;6.60;;
72156;SDS011;60035;52.122;5.406;2023-03-21T13:42:22;12.85;;;6.28;;
72156;SDS011;60035;52.122;5.406;2023-03-21T13:44:54;12.93;;;5.82;;
72156;SDS011;60035;52.122;5.406;2023-03-21T13:52:46;11.93;;;6.07;;
72156;SDS011;60035;52.122;5.406;2023-03-21T13:55:30;10.63;;;5.75;;
72156;SDS011;60035;52.122;5.406;2023-03-21T13:58:22;11.73;;;5.82;;
72156;SDS011;60035;52.122;5.406;2023-03-21T14:03:46;12.48;;;5.78;;
72156;SDS011;60035;52.122;5.406;2023-03-21T14:06:13;12.43;;;6.00;;
72156;SDS011;60035;52.122;5.406;2023-03-21T14:08:43;13.82;;;5.63;;
72156;SDS011;60035;52.122;5.406;2023-03-21T14:11:14;13.80;;;6.22;;
72156;SDS011;60035;52.122;5.406;2023-03-21T14:13:44;11.82;;;6.10;;
72156;SDS011;60035;52.122;5.406;2023-03-21T14:16:16;11.90;;;5.72;;
72156;SDS011;60035;52.122;5.406;2023-03-21T14:18:45;12.43;;;5.63;;
72156;SDS011;60035;52.122;5.406;2023-03-21T14:24:01;12.85;;;5.68;;
72156;SDS011;60035;52.122;5.406;2023-03-21T14:26:30;11.25;;;6.32;;
72156;SDS011;60035;52.122;5.406;2023-03-21T14:29:00;15.57;;;6.65;;
72156;SDS011;60035;52.122;5.406;2023-03-21T14:31:32;13.52;;;5.95;;
72156;SDS011;60035;52.122;5.406;2023-03-21T14:34:00;13.50;;;6.05;;
72156;SDS011;60035;52.122;5.406;2023-03-21T14:36:28;12.77;;;6.10;;
72156;SDS011;60035;52.122;5.406;2023-03-21T14:41:50;14.10;;;6.07;;
72156;SDS011;60035;52.122;5.406;2023-03-21T14:46:58;13.05;;;5.88;;
72156;SDS011;60035;52.122;5.406;2023-03-21T14:49:26;12.57;;;6.22;;
72156;SDS011;60035;52.122;5.406;2023-03-21T14:51:55;12.10;;;6.00;;
72156;SDS011;60035;52.122;5.406;2023-03-21T14:54:24;10.77;;;5.60;;
72156;SDS011;60035;52.122;5.406;2023-03-21T14:56:55;12.80;;;5.43;;
72156;SDS011;60035;52.122;5.406;2023-03-21T14:59:26;12.95;;;5.95;;
72156;SDS011;60035;52.122;5.406;2023-03-21T15:01:58;15.75;;;6.53;;
72156;SDS011;60035;52.122;5.406;2023-03-21T15:04:31;13.32;;;6.38;;
72156;SDS011;60035;52.122;5.406;2023-03-21T15:06:59;16.13;;;6.55;;
72156;SDS011;60035;52.122;5.406;2023-03-21T15:09:30;16.40;;;6.15;;
72156;SDS011;60035;52.122;5.406;2023-03-21T15:11:59;13.02;;;6.63;;
72156;SDS011;60035;52.122;5.406;2023-03-21T15:14:28;15.02;;;6.25;;
72156;SDS011;60035;52.122;5.406;2023-03-21T15:16:59;12.15;;;5.85;;
72156;SDS011;60035;52.122;5.406;2023-03-21T15:19:33;15.00;;;6.25;;
72156;SDS011;60035;52.122;5.406;2023-03-21T15:22:04;12.32;;;5.68;;
72156;SDS011;60035;52.122;5.406;2023-03-21T15:24:38;14.45;;;6.65;;
72156;SDS011;60035;52.122;5.406;2023-03-21T15:27:11;11.40;;;5.90;;
72156;SDS011;60035;52.122;5.406;2023-03-21T15:29:43;13.50;;;6.05;;
72156;SDS011;60035;52.122;5.406;2023-03-21T15:32:21;13.02;;;6.45;;
72156;SDS011;60035;52.122;5.406;2023-03-21T15:34:51;13.98;;;6.90;;
72156;SDS011;60035;52.122;5.406;2023-03-21T15:37:32;12.32;;;5.88;;
72156;SDS011;60035;52.122;5.406;2023-03-21T15:42:38;13.63;;;6.72;;
72156;SDS011;60035;52.122;5.406;2023-03-21T15:45:13;14.23;;;7.07;;
72156;SDS011;60035;52.122;5.406;2023-03-21T15:48:06;12.43;;;6.70;;
72156;SDS011;60035;52.122;5.406;2023-03-21T15:50:38;12.70;;;6.07;;
72156;SDS011;60035;52.122;5.406;2023-03-21T15:53:10;13.70;;;6.40;;
72156;SDS011;60035;52.122;5.406;2023-03-21T15:55:44;15.13;;;7.00;;
72156;SDS011;60035;52.122;5.406;2023-03-21T15:58:17;12.85;;;6.78;;
72156;SDS011;60035;52.122;5.406;2023-03-21T16:00:56;14.80;;;6.80;;
72156;SDS011;60035;52.122;5.406;2023-03-21T16:03:27;10.73;;;6.40;;
72156;SDS011;60035;52.122;5.406;2023-03-21T16:06:06;16.15;;;6.55;;
72156;SDS011;60035;52.122;5.406;2023-03-21T16:08:49;12.57;;;5.90;;
72156;SDS011;60035;52.122;5.406;2023-03-21T16:13:48;15.82;;;7.22;;
72156;SDS011;60035;52.122;5.406;2023-03-21T16:16:19;13.00;;;6.20;;
72156;SDS011;60035;52.122;5.406;2023-03-21T16:18:49;14.20;;;7.85;;
72156;SDS011;60035;52.122;5.406;2023-03-21T16:21:17;16.77;;;7.07;;
72156;SDS011;60035;52.122;5.406;2023-03-21T16:23:47;14.73;;;7.50;;
72156;SDS011;60035;52.122;5.406;2023-03-21T16:26:18;15.30;;;7.10;;
72156;SDS011;60035;52.122;5.406;2023-03-21T16:28:50;13.75;;;6.68;;
72156;SDS011;60035;52.122;5.406;2023-03-21T16:31:19;16.05;;;7.18;;
72156;SDS011;60035;52.122;5.406;2023-03-21T16:33:48;15.18;;;6.95;;
72156;SDS011;60035;52.122;5.406;2023-03-21T16:36:20;17.13;;;7.90;;
72156;SDS011;60035;52.122;5.406;2023-03-21T16:38:52;16.15;;;7.22;;
72156;SDS011;60035;52.122;5.406;2023-03-21T16:41:20;14.43;;;7.28;;
72156;SDS011;60035;52.122;5.406;2023-03-21T16:43:48;15.73;;;6.85;;
72156;SDS011;60035;52.122;5.406;2023-03-21T16:46:16;14.00;;;6.50;;
72156;SDS011;60035;52.122;5.406;2023-03-21T16:48:45;14.85;;;6.55;;
72156;SDS011;60035;52.122;5.406;2023-03-21T16:51:15;15.23;;;6.35;;
72156;SDS011;60035;52.122;5.406;2023-03-21T16:53:44;15.45;;;6.82;;
72156;SDS011;60035;52.122;5.406;2023-03-21T16:56:16;13.75;;;5.25;;